createdAt,value
2022-12-14T00:00:22.399Z,12.80
2022-12-14T00:02:51.441Z,13.73
2022-12-14T00:05:19.867Z,13.33
2022-12-14T00:07:49.030Z,12.67
2022-12-14T00:10:20.434Z,11.70
2022-12-14T00:12:48.138Z,12.40
2022-12-14T00:15:15.908Z,13.57
2022-12-14T00:17:43.539Z,12.57
2022-12-14T00:20:13.137Z,11.80
2022-12-14T00:22:40.794Z,12.37
2022-12-14T00:25:09.132Z,16.73
2022-12-14T00:27:36.798Z,17.33
2022-12-14T00:30:04.788Z,11.90
2022-12-14T00:32:32.455Z,11.13
2022-12-14T00:35:02.675Z,13.00
2022-12-14T00:37:31.649Z,13.67
2022-12-14T00:39:59.268Z,13.33
2022-12-14T00:42:26.911Z,11.37
2022-12-14T00:44:54.566Z,13.70
2022-12-14T00:47:22.291Z,15.03
2022-12-14T00:49:49.991Z,11.77
2022-12-14T00:52:17.622Z,12.33
2022-12-14T00:54:46.689Z,13.83
2022-12-14T00:57:14.575Z,11.20
2022-12-14T00:59:42.258Z,12.70
2022-12-14T01:02:10.172Z,11.80
2022-12-14T01:04:38.004Z,10.87
2022-12-14T01:07:06.974Z,14.87
2022-12-14T01:09:34.779Z,13.80
2022-12-14T01:12:03.756Z,13.73
2022-12-14T01:14:31.435Z,12.87
2022-12-14T01:16:59.083Z,12.53
2022-12-14T01:19:26.679Z,11.47
2022-12-14T01:21:57.014Z,14.30
2022-12-14T01:24:25.907Z,12.03
2022-12-14T01:26:53.560Z,15.03
2022-12-14T01:29:22.593Z,13.67
2022-12-14T01:31:50.303Z,14.13
2022-12-14T01:34:20.460Z,12.57
2022-12-14T01:36:48.134Z,13.13
2022-12-14T01:39:17.140Z,14.10
2022-12-14T01:41:46.724Z,14.97
2022-12-14T01:44:55.531Z,11.77
2022-12-14T01:47:29.512Z,12.43
2022-12-14T01:50:04.185Z,11.90
2022-12-14T01:52:37.739Z,14.13
2022-12-14T01:55:11.215Z,12.83
2022-12-14T01:57:43.313Z,14.43
2022-12-14T02:00:14.356Z,14.30
2022-12-14T02:02:45.322Z,12.03
2022-12-14T02:05:15.080Z,14.23
2022-12-14T02:07:49.020Z,13.47
2022-12-14T02:10:17.233Z,14.37
2022-12-14T02:12:50.121Z,12.67
2022-12-14T02:15:19.751Z,13.53
2022-12-14T02:17:49.238Z,13.77
2022-12-14T02:20:17.853Z,14.07
2022-12-14T02:23:21.214Z,13.23
2022-12-14T02:26:37.667Z,14.90
2022-12-14T02:29:34.097Z,12.30
2022-12-14T02:32:16.490Z,13.63
2022-12-14T02:34:57.414Z,12.20
2022-12-14T02:37:34.594Z,15.13
2022-12-14T02:40:22.008Z,13.30
2022-12-14T02:42:58.488Z,15.87
2022-12-14T02:45:36.202Z,14.33
2022-12-14T02:48:09.686Z,14.03
2022-12-14T02:50:44.224Z,12.63
2022-12-14T02:53:21.567Z,14.40
2022-12-14T02:55:52.443Z,14.30
2022-12-14T02:58:24.354Z,13.60
2022-12-14T03:00:55.308Z,13.23
2022-12-14T03:03:23.157Z,13.33
2022-12-14T03:05:58.032Z,13.03
2022-12-14T03:08:28.819Z,11.40
2022-12-14T03:10:59.951Z,13.07
2022-12-14T03:13:31.524Z,13.97
2022-12-14T03:16:05.788Z,14.37
2022-12-14T03:18:38.482Z,14.13
2022-12-14T03:21:11.712Z,13.77
2022-12-14T03:23:42.307Z,13.27
2022-12-14T03:26:17.138Z,12.97
2022-12-14T03:28:47.662Z,14.33
2022-12-14T03:31:23.301Z,14.30
2022-12-14T03:33:55.679Z,13.77
2022-12-14T03:36:29.580Z,13.43
2022-12-14T03:39:01.306Z,14.90
2022-12-14T03:41:36.597Z,13.53
2022-12-14T03:44:19.337Z,14.67
2022-12-14T03:46:57.656Z,13.73
2022-12-14T03:49:38.858Z,13.50
2022-12-14T03:52:13.652Z,15.33
2022-12-14T03:54:50.610Z,13.50
2022-12-14T03:57:29.485Z,12.70
2022-12-14T04:00:03.719Z,14.17
2022-12-14T04:02:41.036Z,12.73
2022-12-14T04:05:15.107Z,12.67
2022-12-14T04:07:49.211Z,14.53
2022-12-14T04:10:37.734Z,16.97
2022-12-14T04:13:26.391Z,14.83
2022-12-14T04:16:19.440Z,14.57
2022-12-14T04:19:00.516Z,13.50
2022-12-14T04:21:36.909Z,14.10
2022-12-14T04:24:28.255Z,13.23
2022-12-14T04:26:59.242Z,15.23
2022-12-14T04:29:48.389Z,12.83
2022-12-14T04:32:20.374Z,15.70
2022-12-14T04:34:53.241Z,14.87
2022-12-14T04:37:24.675Z,15.97
2022-12-14T04:39:54.968Z,15.23
2022-12-14T04:42:28.214Z,14.17
2022-12-14T04:45:00.624Z,14.57
2022-12-14T04:47:33.533Z,13.30
2022-12-14T04:50:07.190Z,15.70
2022-12-14T04:52:40.710Z,16.93
2022-12-14T04:55:15.863Z,15.00
2022-12-14T04:57:50.798Z,15.07
2022-12-14T05:00:18.838Z,13.00
2022-12-14T05:03:07.060Z,13.37
2022-12-14T05:05:45.657Z,15.43
2022-12-14T05:08:21.697Z,12.70
2022-12-14T05:11:00.889Z,12.90
2022-12-14T05:13:48.875Z,14.63
2022-12-14T05:16:18.312Z,13.93
2022-12-14T05:18:46.371Z,12.67
2022-12-14T05:21:35.516Z,17.97
2022-12-14T05:24:04.786Z,13.80
2022-12-14T05:26:32.745Z,13.93
2022-12-14T05:29:00.368Z,14.70
2022-12-14T05:31:28.034Z,13.60
2022-12-14T05:33:55.656Z,14.20
2022-12-14T05:36:24.832Z,14.53
2022-12-14T05:38:52.533Z,14.23
2022-12-14T05:41:20.161Z,14.83
2022-12-14T05:43:49.212Z,14.70
2022-12-14T05:46:17.017Z,14.87
2022-12-14T05:48:49.156Z,14.23
2022-12-14T05:51:17.875Z,15.73
2022-12-14T05:53:46.911Z,17.43
2022-12-14T05:56:14.587Z,14.93
2022-12-14T05:58:42.267Z,14.13
2022-12-14T06:01:18.496Z,13.30
2022-12-14T06:03:46.760Z,16.40
2022-12-14T06:06:15.718Z,14.57
2022-12-14T06:08:44.901Z,14.23
2022-12-14T06:11:15.778Z,16.50
2022-12-14T06:13:44.296Z,14.10
2022-12-14T06:16:14.174Z,14.03
2022-12-14T06:18:43.736Z,16.37
2022-12-14T06:21:11.529Z,12.97
2022-12-14T06:23:39.211Z,16.47
2022-12-14T06:26:07.558Z,14.67
2022-12-14T06:28:36.960Z,14.60
2022-12-14T06:31:05.845Z,15.80
2022-12-14T06:33:34.972Z,17.17
2022-12-14T06:36:03.921Z,14.83
2022-12-14T06:38:31.573Z,15.43
2022-12-14T06:40:59.213Z,16.57
2022-12-14T06:43:27.677Z,16.17
2022-12-14T06:45:57.438Z,17.87
2022-12-14T06:48:25.075Z,16.20
2022-12-14T06:50:52.707Z,15.30
2022-12-14T06:53:20.320Z,17.63
2022-12-14T06:55:49.296Z,20.80
2022-12-14T06:58:17.101Z,17.37
2022-12-14T07:00:45.089Z,18.10
2022-12-14T07:03:14.061Z,16.67
2022-12-14T07:05:45.779Z,19.50
2022-12-14T07:08:16.444Z,17.27
2022-12-14T07:10:44.100Z,15.60
2022-12-14T07:13:11.694Z,17.40
2022-12-14T07:15:39.511Z,14.97
2022-12-14T07:18:07.243Z,18.23
2022-12-14T07:20:36.251Z,21.47
2022-12-14T07:23:03.949Z,16.60
2022-12-14T07:25:31.653Z,18.17
2022-12-14T07:27:59.237Z,18.47
2022-12-14T07:30:26.915Z,18.63
2022-12-14T07:32:54.532Z,16.63
2022-12-14T07:35:22.138Z,17.03
2022-12-14T07:37:51.843Z,17.67
2022-12-14T07:40:19.481Z,17.73
2022-12-14T07:42:49.473Z,15.97
2022-12-14T07:45:17.148Z,17.27
2022-12-14T07:47:44.775Z,17.83
2022-12-14T07:50:12.361Z,17.43
2022-12-14T07:52:39.943Z,18.07
2022-12-14T07:55:10.309Z,18.73
2022-12-14T07:57:38.104Z,16.87
2022-12-14T08:00:06.637Z,17.73
2022-12-14T08:02:34.333Z,19.33
2022-12-14T08:05:02.082Z,16.53
2022-12-14T08:07:31.072Z,15.97
2022-12-14T08:09:58.658Z,16.57
2022-12-14T08:12:27.612Z,16.37
2022-12-14T08:14:55.223Z,18.63
2022-12-14T08:17:22.782Z,20.00
2022-12-14T08:19:50.365Z,16.10
2022-12-14T08:22:18.044Z,17.57
2022-12-14T08:24:49.583Z,19.07
2022-12-14T08:27:17.369Z,16.07
2022-12-14T08:29:46.345Z,19.60
2022-12-14T08:32:14.059Z,19.03
2022-12-14T08:34:41.633Z,16.40
2022-12-14T08:37:09.259Z,16.43
2022-12-14T08:39:36.891Z,18.50
2022-12-14T08:42:04.597Z,18.73
2022-12-14T08:44:32.244Z,16.80
2022-12-14T08:47:01.308Z,18.33
2022-12-14T08:49:32.601Z,19.13
2022-12-14T08:52:00.559Z,18.57
2022-12-14T08:54:28.139Z,17.43
2022-12-14T08:56:55.744Z,18.03
2022-12-14T08:59:52.153Z,19.20
2022-12-14T09:02:12.296Z,19.03
2022-12-14T09:04:39.936Z,16.37
2022-12-14T09:07:07.543Z,17.57
2022-12-14T09:09:37.215Z,16.27
2022-12-14T09:12:06.720Z,18.07
2022-12-14T09:14:34.466Z,17.83
2022-12-14T09:17:02.898Z,18.67
2022-12-14T09:19:31.928Z,19.23
2022-12-14T09:21:59.553Z,15.63
2022-12-14T09:24:28.377Z,16.23
2022-12-14T09:26:56.001Z,16.60
2022-12-14T09:29:23.621Z,18.30
2022-12-14T09:31:51.271Z,18.87
2022-12-14T09:34:19.271Z,18.13
2022-12-14T09:36:49.137Z,18.60
2022-12-14T09:39:16.834Z,16.30
2022-12-14T09:42:01.145Z,15.83
2022-12-14T09:44:41.796Z,17.27
2022-12-14T09:47:16.148Z,17.37
2022-12-14T09:49:48.072Z,14.53
2022-12-14T09:52:26.209Z,15.83
2022-12-14T09:54:55.525Z,19.47
2022-12-14T09:57:30.074Z,17.77
2022-12-14T09:59:57.805Z,18.67
2022-12-14T10:02:36.659Z,22.37
2022-12-14T10:05:20.949Z,16.83
2022-12-14T10:08:02.713Z,15.90
2022-12-14T10:10:38.558Z,15.77
2022-12-14T10:13:18.727Z,17.07
2022-12-14T10:16:01.093Z,18.73
2022-12-14T10:19:02.159Z,17.13
2022-12-14T10:21:42.592Z,17.27
2022-12-14T10:24:19.306Z,15.97
2022-12-14T10:26:52.981Z,18.40
2022-12-14T10:29:32.741Z,17.53
2022-12-14T10:32:07.776Z,15.47
2022-12-14T10:34:36.212Z,17.23
2022-12-14T10:37:13.086Z,18.43
2022-12-14T10:39:52.117Z,17.83
2022-12-14T10:42:29.091Z,19.63
2022-12-14T10:45:39.161Z,18.23
2022-12-14T10:47:58.423Z,19.00
2022-12-14T10:50:38.085Z,17.37
2022-12-14T10:53:12.002Z,17.80
2022-12-14T10:55:44.041Z,18.90
2022-12-14T10:58:12.161Z,15.60
2022-12-14T11:00:39.874Z,18.30
2022-12-14T11:03:14.942Z,18.83
2022-12-14T11:05:50.140Z,19.17
2022-12-14T11:08:40.527Z,16.93
2022-12-14T11:11:16.997Z,18.10
2022-12-14T11:13:50.662Z,16.97
2022-12-14T11:16:26.736Z,18.53
2022-12-14T11:19:01.677Z,18.30
2022-12-14T11:21:35.318Z,16.93
2022-12-14T11:24:03.172Z,18.47
2022-12-14T11:26:36.454Z,14.83
2022-12-14T11:29:17.541Z,16.60
2022-12-14T11:31:47.016Z,15.63
2022-12-14T11:34:31.023Z,17.67
2022-12-14T11:37:12.670Z,16.37
2022-12-14T11:39:41.929Z,15.30
2022-12-14T11:42:20.322Z,13.83
2022-12-14T11:44:49.918Z,14.93
2022-12-14T11:47:19.388Z,16.07
2022-12-14T11:49:48.878Z,17.30
2022-12-14T11:52:19.757Z,15.37
2022-12-14T11:54:51.785Z,16.03
2022-12-14T11:57:28.850Z,14.20
2022-12-14T11:59:59.565Z,16.93
2022-12-14T12:02:34.409Z,17.30
2022-12-14T12:05:07.721Z,16.27
2022-12-14T12:07:37.398Z,16.33
2022-12-14T12:10:18.216Z,16.63
2022-12-14T12:12:54.544Z,16.47
2022-12-14T12:15:25.766Z,16.40
2022-12-14T12:17:56.454Z,16.20
2022-12-14T12:20:33.279Z,15.77
2022-12-14T12:23:08.583Z,16.53
2022-12-14T12:25:38.663Z,14.03
2022-12-14T12:28:19.550Z,17.20
2022-12-14T12:30:52.539Z,14.27
2022-12-14T12:33:29.091Z,15.10
2022-12-14T12:36:00.912Z,17.10
2022-12-14T12:38:42.193Z,14.70
2022-12-14T12:41:24.270Z,14.07
2022-12-14T12:43:57.544Z,15.77
2022-12-14T12:46:29.114Z,17.50
2022-12-14T12:49:05.641Z,14.43
2022-12-14T12:51:40.376Z,16.70
2022-12-14T12:54:12.145Z,18.30
2022-12-14T12:56:48.169Z,15.83
2022-12-14T12:59:21.778Z,14.27
2022-12-14T13:01:55.659Z,14.17
2022-12-14T13:04:32.121Z,16.90
2022-12-14T13:07:05.203Z,15.83
2022-12-14T13:09:39.693Z,15.40
2022-12-14T13:12:14.846Z,15.40
2022-12-14T13:14:49.832Z,16.20
2022-12-14T13:17:30.370Z,15.87
2022-12-14T13:20:00.609Z,15.70
2022-12-14T13:22:30.878Z,15.07
2022-12-14T13:25:06.413Z,16.50
2022-12-14T13:27:52.505Z,13.20
2022-12-14T13:30:31.358Z,15.00
2022-12-14T13:33:21.402Z,14.47
2022-12-14T13:36:10.835Z,14.37
2022-12-14T13:39:00.630Z,14.27
2022-12-14T13:41:37.384Z,14.90
2022-12-14T13:44:24.983Z,13.20
2022-12-14T13:47:02.812Z,15.33
2022-12-14T13:49:31.238Z,15.53
2022-12-14T13:51:59.107Z,15.43
2022-12-14T13:54:31.192Z,16.03
2022-12-14T13:57:05.306Z,16.30
2022-12-14T13:59:38.478Z,21.93
2022-12-14T14:02:30.398Z,16.97
2022-12-14T14:05:31.704Z,16.57
2022-12-14T14:08:02.707Z,17.57
2022-12-14T14:10:33.928Z,16.60
2022-12-14T14:13:03.059Z,16.93
2022-12-14T14:15:51.990Z,15.63
2022-12-14T14:18:31.318Z,15.10
2022-12-14T14:21:31.270Z,18.57
2022-12-14T14:24:01.332Z,17.37
2022-12-14T14:26:31.227Z,17.77
2022-12-14T14:29:21.248Z,16.97
2022-12-14T14:31:52.704Z,17.07
2022-12-14T14:34:33.650Z,21.10
2022-12-14T14:37:13.607Z,19.77
2022-12-14T14:40:07.150Z,17.57
2022-12-14T14:42:34.661Z,16.37
2022-12-14T14:45:05.213Z,17.63
2022-12-14T14:47:35.956Z,19.40
2022-12-14T14:50:09.202Z,17.50
2022-12-14T14:53:12.305Z,20.33
2022-12-14T14:56:06.991Z,18.90
2022-12-14T14:58:37.191Z,20.27
2022-12-14T15:01:21.304Z,21.87
2022-12-14T15:03:54.168Z,21.70
2022-12-14T15:06:27.422Z,21.80
2022-12-14T15:09:00.768Z,21.17
2022-12-14T15:11:32.454Z,22.77
2022-12-14T15:14:03.781Z,17.23
2022-12-14T15:16:33.648Z,20.40
2022-12-14T15:19:35.924Z,20.73
2022-12-14T15:22:07.608Z,18.77
2022-12-14T15:24:39.322Z,19.70
2022-12-14T15:27:19.098Z,20.77
2022-12-14T15:29:49.426Z,19.83
2022-12-14T15:32:19.455Z,19.57
2022-12-14T15:34:53.117Z,19.30
2022-12-14T15:37:28.940Z,22.53
2022-12-14T15:40:05.520Z,20.50
2022-12-14T15:42:33.205Z,17.77
2022-12-14T15:45:13.601Z,18.97
2022-12-14T15:47:41.201Z,17.13
2022-12-14T15:50:21.935Z,18.60
2022-12-14T15:52:53.494Z,19.53
2022-12-14T15:55:30.913Z,17.40
2022-12-14T15:58:00.998Z,19.57
2022-12-14T16:00:28.968Z,22.97
2022-12-14T16:02:56.884Z,20.17
2022-12-14T16:05:24.723Z,20.40
2022-12-14T16:07:57.601Z,19.13
2022-12-14T16:10:28.311Z,19.20
2022-12-14T16:13:01.391Z,17.03
2022-12-14T16:15:30.256Z,18.10
2022-12-14T16:18:02.705Z,19.23
2022-12-14T16:20:32.853Z,18.20
2022-12-14T16:23:05.834Z,21.27
2022-12-14T16:25:35.673Z,19.77
2022-12-14T16:28:22.169Z,19.40
2022-12-14T16:30:56.116Z,17.13
2022-12-14T16:33:25.493Z,19.50
2022-12-14T16:36:02.398Z,17.70
2022-12-14T16:38:32.083Z,17.43
2022-12-14T16:41:01.765Z,17.97
2022-12-14T16:43:33.871Z,18.50
2022-12-14T16:46:17.384Z,16.27
2022-12-14T16:48:50.101Z,15.53
2022-12-14T16:54:29.152Z,18.07
2022-12-14T16:57:01.227Z,18.07
2022-12-14T16:59:35.872Z,20.02
2022-12-14T17:02:04.090Z,17.40
2022-12-14T17:04:36.648Z,17.00
2022-12-14T17:07:04.911Z,19.07
2022-12-14T17:09:35.419Z,19.33
2022-12-14T17:12:12.332Z,17.80
2022-12-14T17:14:43.519Z,17.40
2022-12-14T17:17:20.451Z,15.23
2022-12-14T17:19:48.194Z,20.07
2022-12-14T17:22:27.695Z,20.03
2022-12-14T17:24:57.156Z,19.73
2022-12-14T17:27:26.645Z,16.57
2022-12-14T17:29:56.975Z,17.50
2022-12-14T17:32:28.789Z,16.10
2022-12-14T17:34:56.429Z,19.17
2022-12-14T17:37:27.660Z,17.03
2022-12-14T17:40:00.712Z,16.10
2022-12-14T17:42:28.376Z,17.70
2022-12-14T17:44:57.814Z,17.73
2022-12-14T17:47:26.144Z,17.17
2022-12-14T17:49:53.810Z,18.47
2022-12-14T17:52:24.971Z,18.37
2022-12-14T17:54:52.668Z,16.43
2022-12-14T17:57:23.598Z,15.63
2022-12-14T18:00:13.082Z,17.20
2022-12-14T18:02:41.626Z,21.30
2022-12-14T18:05:22.912Z,18.57
2022-12-14T18:07:50.507Z,25.07
2022-12-14T18:10:19.424Z,36.60
2022-12-14T18:12:48.491Z,25.43
2022-12-14T18:15:19.365Z,20.83
2022-12-14T18:17:49.287Z,30.90
2022-12-14T18:20:17.493Z,29.83
2022-12-14T18:22:49.736Z,73.43
2022-12-14T18:25:31.759Z,40.60
2022-12-14T18:28:01.735Z,45.07
2022-12-14T18:30:36.810Z,28.63
2022-12-14T18:33:07.712Z,26.13
2022-12-14T18:35:36.299Z,25.10
2022-12-14T18:38:06.700Z,19.13
2022-12-14T18:40:34.727Z,21.40
2022-12-14T18:43:04.381Z,17.53
2022-12-14T18:45:34.858Z,22.00
2022-12-14T18:48:05.402Z,18.03
2022-12-14T18:50:34.602Z,20.67
2022-12-14T18:53:05.901Z,16.53
2022-12-14T18:55:35.074Z,19.33
2022-12-14T18:58:04.526Z,18.97
2022-12-14T19:00:34.098Z,18.33
2022-12-14T19:03:03.306Z,15.90
2022-12-14T19:05:31.808Z,20.57
2022-12-14T19:08:00.511Z,20.23
2022-12-14T19:10:30.908Z,17.03
2022-12-14T19:12:59.462Z,15.63
2022-12-14T19:15:30.207Z,15.37
2022-12-14T19:17:57.937Z,14.60
2022-12-14T19:20:26.430Z,12.57
2022-12-14T19:22:54.680Z,13.93
2022-12-14T19:25:23.437Z,12.87
2022-12-14T19:30:43.953Z,13.00
2022-12-14T19:33:11.647Z,11.90
2022-12-14T19:35:41.346Z,11.13
2022-12-14T19:38:13.763Z,12.93
2022-12-14T19:40:42.232Z,13.30
2022-12-14T19:43:10.056Z,14.03
2022-12-14T19:45:39.507Z,13.77
2022-12-14T19:48:12.945Z,15.27
2022-12-14T19:50:41.089Z,13.40
2022-12-14T19:53:08.793Z,15.37
2022-12-14T19:55:36.751Z,14.07
2022-12-14T19:58:04.437Z,14.50
2022-12-14T20:00:32.034Z,14.50
2022-12-14T20:02:59.853Z,13.93
2022-12-14T20:05:28.957Z,13.00
2022-12-14T20:07:56.570Z,13.83
2022-12-14T20:10:24.252Z,16.80
2022-12-14T20:12:51.910Z,11.87
2022-12-14T20:15:19.590Z,11.40
2022-12-14T20:17:47.308Z,12.60
2022-12-14T20:20:15.085Z,10.90
2022-12-14T20:22:44.045Z,9.97
2022-12-14T20:25:11.642Z,11.47
2022-12-14T20:27:40.925Z,10.93
2022-12-14T20:30:10.240Z,9.30
2022-12-14T20:32:39.892Z,11.10
2022-12-14T20:35:09.910Z,9.67
2022-12-14T20:37:37.514Z,8.30
2022-12-14T20:40:10.558Z,9.43
2022-12-14T20:42:38.360Z,8.60
2022-12-14T20:45:07.744Z,7.73
2022-12-14T20:47:35.880Z,8.80
2022-12-14T20:50:03.595Z,8.87
2022-12-14T20:52:31.215Z,8.23
2022-12-14T20:54:58.979Z,9.03
2022-12-14T20:57:28.392Z,8.50
2022-12-14T20:59:59.263Z,10.10
2022-12-14T21:02:27.310Z,8.40
2022-12-14T21:04:55.118Z,8.77
2022-12-14T21:07:26.137Z,9.43
2022-12-14T21:09:54.373Z,8.67
2022-12-14T21:12:21.037Z,9.37
2022-12-14T21:14:53.041Z,9.07
2022-12-14T21:17:21.787Z,8.83
2022-12-14T21:19:49.458Z,8.13
2022-12-14T21:22:19.532Z,8.43
2022-12-14T21:25:07.464Z,8.17
2022-12-14T21:27:38.126Z,8.53
2022-12-14T21:30:10.487Z,9.07
2022-12-14T21:32:38.802Z,9.47
2022-12-14T21:35:07.475Z,8.87
2022-12-14T21:37:35.291Z,9.17
2022-12-14T21:40:03.857Z,9.53
2022-12-14T21:42:30.629Z,9.87
2022-12-14T21:44:58.226Z,10.67
2022-12-14T21:47:29.505Z,9.30
2022-12-14T21:50:01.449Z,9.37
2022-12-14T21:52:29.321Z,8.60
2022-12-14T21:54:58.874Z,10.03
2022-12-14T21:57:50.319Z,8.97
2022-12-14T22:00:19.339Z,10.10
2022-12-14T22:02:48.510Z,8.60
2022-12-14T22:05:17.714Z,8.73
2022-12-14T22:07:47.905Z,8.13
2022-12-14T22:10:19.894Z,7.93
2022-12-14T22:12:50.641Z,9.00
2022-12-14T22:15:18.235Z,9.33
2022-12-14T22:17:45.995Z,9.17
2022-12-14T22:20:15.495Z,9.53
2022-12-14T22:22:43.098Z,10.57
2022-12-14T22:25:10.700Z,9.70
2022-12-14T22:27:40.000Z,10.40
2022-12-14T22:30:09.246Z,10.30
2022-12-14T22:32:36.911Z,11.30
2022-12-14T22:35:05.320Z,11.10
2022-12-14T22:37:34.238Z,9.00
2022-12-14T22:40:01.931Z,12.23
2022-12-14T22:42:31.770Z,10.03
2022-12-14T22:44:59.389Z,10.83
2022-12-14T22:47:27.109Z,10.93
2022-12-14T22:49:54.771Z,12.97
2022-12-14T22:52:25.012Z,11.43
2022-12-14T22:54:54.494Z,10.50
2022-12-14T22:57:22.930Z,11.37
2022-12-14T22:59:57.251Z,10.77
2022-12-14T23:02:25.124Z,11.37
2022-12-14T23:04:53.341Z,12.27
2022-12-14T23:07:21.019Z,12.50
2022-12-14T23:10:06.166Z,11.53
2022-12-14T23:12:52.663Z,12.27
2022-12-14T23:15:38.046Z,12.73
2022-12-14T23:18:25.463Z,10.40
2022-12-14T23:21:11.387Z,12.03
2022-12-14T23:23:57.187Z,12.53
2022-12-14T23:26:42.712Z,10.80
2022-12-14T23:29:29.459Z,12.97
2022-12-14T23:32:14.739Z,10.63
2022-12-14T23:35:00.135Z,11.00
2022-12-14T23:37:45.243Z,10.17
2022-12-14T23:40:30.734Z,11.07
2022-12-14T23:43:16.281Z,11.00
2022-12-14T23:46:02.822Z,11.97
2022-12-14T23:48:48.113Z,11.30
2022-12-14T23:51:33.482Z,12.07
2022-12-14T23:54:19.017Z,13.33
2022-12-14T23:57:04.298Z,11.23
2022-12-14T23:59:49.947Z,14.13
